Huvudsida
METAR-TAF:

METAR-TAF

Flygplatser :

Skellefteå Airport

Skellefteå, Sverige

latitud: 64-38N, longitud: 021-05E, höjd: 49 m

Aktuellt väderrapport

Denna rapport gjordes för 38 minuter sedan, klockan 18:20 UTC
Vind 7 kt från väst/sydväst
Temperatur 5°C
Fuktighet 81%
Tryck 1011 hPa
Sikt 10 km eller mer
Inga moln under 1 500 m eller inga cumulonimbus

METAR: ESNS 201820Z 25007KT CAVOK 05/02 Q1011

Tid: 20:58 (18:58 UTC)

Väderprognos

Denna rapport gjordes för 1 timme och 28 minuter sedan, klockan 17:30 UTC
Prognos gäller från 20 kl. 18 UTC till 20 kl. 23 UTC
Vind 4 kt från väst
Sikt 10 km eller mer
Inga moln under 1 500 m eller inga cumulonimbus
Sannolikhet 40%
från 20 kl. 20 UTC till 20 kl. 23 UTC
Brutna moln på en höjd av 1200 ft

TAF: ESNS 201730Z 2018/2023 26004KT CAVOK PROB40 2020/2023 BKN012

Aktuella väderrapporter och prognoser från 4000 flygplatser (METAR- och TAF-rapporter).

De tillgängliga stationerna syns som gula och röda prickar på kartan.

För musen över prickarna för att se namnen på stationerna.

Klicka sedan för att få väderrapporter och prognoser.

För att ändra kartan: Klicka på de gröna knapparna med ett svart kors på för att zooma in; den gröna knappen med ett streck på för att zooma ut; eller på de gröna pilarna för angränsande kartor.


METAR-TAF: